Time;durP1;ratioP1;P1;durP2;ratioP2;P2;SDS_P1;SDS_P2;PMS_P1;PMS_P2;Temp;Humidity;BMP_temperature;BMP_pressure;BME280_temperature;BME280_humidity;BME280_pressure;Samples;Min_cycle;Max_cycle;Signal;HPM_P1;HPM_P2
2022/01/15 00:01:11;;;;;;;;;;;18.50;41.60;;;;;;5024551;28;45365;-69
2022/01/15 00:03:37;;;;;;;;;;;18.60;41.80;;;;;;5042423;28;42906;-73
2022/01/15 00:06:02;;;;;;;;;;;18.60;41.90;;;;;;5042716;28;43563;-80
2022/01/15 00:08:28;;;;;;;;;;;18.60;41.90;;;;;;5026530;28;43062;-74
2022/01/15 00:10:53;;;;;;;;;;;18.60;42.00;;;;;;5013081;28;44320;-71
2022/01/15 00:13:30;;;;;;;;;;;18.60;41.80;;;;;;5030577;28;43109;-72
2022/01/15 00:19:02;;;;;;;;;;;18.60;41.90;;;;;;5016147;28;43269;-70
2022/01/15 00:21:28;;;;;;;;;;;18.50;42.00;;;;;;5024961;28;44395;-76
2022/01/15 00:23:54;;;;;;;;;;;18.60;41.90;;;;;;5043318;28;42987;-74
2022/01/15 00:26:19;;;;;;;;;;;18.60;41.80;;;;;;5043306;28;43041;-80
2022/01/15 00:28:45;;;;;;;;;;;18.20;41.60;;;;;;5042942;28;42921;-75
2022/01/15 00:31:11;;;;;;;;;;;20.10;42.60;;;;;;5042281;28;42897;-82
2022/01/15 00:33:36;;;;;;;;;;;18.50;41.70;;;;;;5004479;28;43081;-81
2022/01/15 00:36:02;;;;;;;;;;;18.50;41.70;;;;;;5037848;28;42903;-71
2022/01/15 00:38:27;;;;;;;;;;;18.50;41.80;;;;;;5043063;28;43004;-73
2022/01/15 00:40:53;;;;;;;;;;;18.60;41.80;;;;;;5042806;28;43230;-80
2022/01/15 00:43:18;;;;;;;;;;;18.60;41.90;;;;;;5042974;28;43050;-74
2022/01/15 00:45:45;;;;;;;;;;;18.60;42.10;;;;;;5043233;28;42885;-83
2022/01/15 00:48:10;;;;;;;;;;;18.50;41.80;;;;;;5042963;28;43157;-81
2022/01/15 00:50:36;;;;;;;;;;;18.60;41.80;;;;;;5043317;28;43713;-72
2022/01/15 00:53:01;;;;;;;;;;;18.50;41.80;;;;;;5042322;28;42952;-84
2022/01/15 00:55:27;;;;;;;;;;;18.50;41.90;;;;;;5038517;28;43678;-83
2022/01/15 00:57:52;;;;;;;;;;;18.50;41.80;;;;;;5042459;28;42979;-84
2022/01/15 01:00:19;;;;;;;;;;;18.50;41.90;;;;;;5043487;28;43095;-83
2022/01/15 01:02:45;;;;;;;;;;;18.50;41.90;;;;;;5044042;28;42980;-81
2022/01/15 01:05:11;;;;;;;;;;;18.50;41.90;;;;;;5044065;28;42912;-78
2022/01/15 01:07:36;;;;;;;;;;;18.50;41.90;;;;;;5043140;28;43033;-84
2022/01/15 01:10:35;;;;;;;;;;;18.50;42.00;;;;;;5044018;28;42874;-80
2022/01/15 01:23:26;;;;;;;;;;;18.50;41.90;;;;;;5043027;28;42904;-79
2022/01/15 01:25:58;;;;;;;;;;;18.50;42.00;;;;;;5046161;28;43386;-72
2022/01/15 01:28:31;;;;;;;;;;;18.50;42.00;;;;;;5045164;28;42809;-79
2022/01/15 01:33:33;;;;;;;;;;;18.50;42.10;;;;;;5043904;28;42949;-77
2022/01/15 01:36:35;;;;;;;;;;;18.50;42.60;;;;;;5043809;28;42838;-84
2022/01/15 01:39:06;;;;;;;;;;;18.50;42.10;;;;;;5042863;28;43173;-82
2022/01/15 01:41:36;;;;;;;;;;;18.50;42.10;;;;;;5043324;28;43064;-83
2022/01/15 01:44:04;;;;;;;;;;;18.50;42.10;;;;;;5043701;28;43019;-80
2022/01/15 01:48:57;;;;;;;;;;;18.50;42.20;;;;;;5043701;28;43063;-79
2022/01/15 01:51:22;;;;;;;;;;;18.50;42.20;;;;;;5043276;28;43821;-83
2022/01/15 01:53:48;;;;;;;;;;;18.50;42.20;;;;;;5042916;28;42921;-78
2022/01/15 01:56:14;;;;;;;;;;;18.50;42.20;;;;;;5043149;28;42879;-83
2022/01/15 01:58:40;;;;;;;;;;;18.50;42.10;;;;;;5046735;28;43154;-75
2022/01/15 02:01:06;;;;;;;;;;;18.50;42.20;;;;;;5046681;28;42952;-75
2022/01/15 02:03:31;;;;;;;;;;;18.50;42.10;;;;;;5047141;28;42987;-83
2022/01/15 02:05:57;;;;;;;;;;;18.50;42.00;;;;;;5046701;28;43654;-83
2022/01/15 02:08:23;;;;;;;;;;;18.50;42.20;;;;;;5047551;28;42999;-82
2022/01/15 02:10:49;;;;;;;;;;;18.50;42.20;;;;;;5046839;28;43250;-74
2022/01/15 02:13:15;;;;;;;;;;;18.50;42.10;;;;;;5046172;28;42933;-84
2022/01/15 02:15:40;;;;;;;;;;;18.50;42.10;;;;;;5045975;28;43577;-78
2022/01/15 02:18:06;;;;;;;;;;;18.50;42.20;;;;;;5046780;28;42929;-82
2022/01/15 02:25:55;;;;;;;;;;;18.50;42.20;;;;;;5046951;28;42940;-70
2022/01/15 02:28:22;;;;;;;;;;;18.50;41.90;;;;;;5030360;28;43509;-80
2022/01/15 02:31:07;;;;;;;;;;;18.50;42.00;;;;;;5026321;28;43433;-84
2022/01/15 02:33:34;;;;;;;;;;;18.50;42.10;;;;;;5025444;28;43159;-76
2022/01/15 02:36:00;;;;;;;;;;;18.50;41.90;;;;;;5026469;28;42914;-83
2022/01/15 02:38:25;;;;;;;;;;;18.50;42.10;;;;;;5026426;28;43308;-81
2022/01/15 02:40:51;;;;;;;;;;;18.50;42.10;;;;;;5026670;28;42811;-70
2022/01/15 02:43:19;;;;;;;;;;;18.50;41.90;;;;;;5026830;28;42894;-84
2022/01/15 02:45:54;;;;;;;;;;;18.50;41.90;;;;;;5026317;28;43364;-74
2022/01/15 02:48:20;;;;;;;;;;;18.50;42.00;;;;;;5026885;28;42927;-77
2022/01/15 02:50:46;;;;;;;;;;;18.50;41.80;;;;;;5026517;28;43327;-82
2022/01/15 02:53:13;;;;;;;;;;;18.50;42.20;;;;;;5025979;28;43043;-80
2022/01/15 02:55:42;;;;;;;;;;;18.50;41.90;;;;;;5025777;28;43430;-81
2022/01/15 02:58:08;;;;;;;;;;;18.50;42.00;;;;;;5026037;28;42992;-81
2022/01/15 03:00:34;;;;;;;;;;;18.50;41.90;;;;;;5025396;28;43037;-73
2022/01/15 03:02:59;;;;;;;;;;;18.50;42.10;;;;;;5025212;28;43683;-80
2022/01/15 03:05:25;;;;;;;;;;;18.50;42.00;;;;;;5025229;28;43549;-76
2022/01/15 03:07:50;;;;;;;;;;;18.50;41.90;;;;;;5025285;28;43218;-80
2022/01/15 03:10:16;;;;;;;;;;;18.50;41.70;;;;;;5024299;28;43677;-73
2022/01/15 03:12:44;;;;;;;;;;;18.50;41.80;;;;;;5024673;28;60610;-79
2022/01/15 03:15:09;;;;;;;;;;;18.50;41.70;;;;;;5007062;28;45086;-77
2022/01/15 03:17:35;;;;;;;;;;;18.50;41.90;;;;;;5025336;28;43315;-82
2022/01/15 03:20:03;;;;;;;;;;;18.50;41.80;;;;;;5025723;28;43721;-79
2022/01/15 03:22:28;;;;;;;;;;;18.50;41.90;;;;;;5025071;28;42941;-82
2022/01/15 03:24:54;;;;;;;;;;;18.50;41.90;;;;;;5034430;28;44213;-83
2022/01/15 03:27:23;;;;;;;;;;;18.50;41.90;;;;;;5037960;28;42877;-81
2022/01/15 03:29:50;;;;;;;;;;;18.50;41.80;;;;;;5056114;28;43507;-81
2022/01/15 03:32:16;;;;;;;;;;;18.50;41.80;;;;;;5065678;28;43000;-74
2022/01/15 03:34:41;;;;;;;;;;;18.50;41.90;;;;;;5058367;28;44112;-74
2022/01/15 03:37:07;;;;;;;;;;;18.50;41.80;;;;;;5043743;28;43301;-84
2022/01/15 03:39:33;;;;;;;;;;;18.50;41.80;;;;;;5043901;28;42927;-70
2022/01/15 03:41:58;;;;;;;;;;;18.50;41.80;;;;;;5045660;28;43179;-84
2022/01/15 03:44:24;;;;;;;;;;;18.50;41.80;;;;;;5046868;28;43829;-81
2022/01/15 03:46:49;;;;;;;;;;;18.50;41.80;;;;;;5045936;28;43051;-84
2022/01/15 03:49:15;;;;;;;;;;;18.50;41.80;;;;;;5045438;28;43467;-80
2022/01/15 03:51:40;;;;;;;;;;;18.50;41.90;;;;;;5045599;28;42968;-82
2022/01/15 03:54:06;;;;;;;;;;;18.40;41.80;;;;;;5045036;28;42927;-83
2022/01/15 03:56:31;;;;;;;;;;;18.40;41.90;;;;;;5045271;28;42957;-75
2022/01/15 03:58:57;;;;;;;;;;;18.50;41.90;;;;;;5044591;28;42895;-82
2022/01/15 04:01:22;;;;;;;;;;;18.40;41.80;;;;;;5045346;28;43022;-80
2022/01/15 04:03:48;;;;;;;;;;;18.40;41.80;;;;;;5045438;28;42920;-80
2022/01/15 04:06:14;;;;;;;;;;;18.50;42.00;;;;;;5044381;28;43077;-75
2022/01/15 04:08:39;;;;;;;;;;;18.50;41.90;;;;;;5045355;28;42902;-80
2022/01/15 04:11:05;;;;;;;;;;;18.40;41.90;;;;;;5045035;28;42950;-83
2022/01/15 04:13:30;;;;;;;;;;;18.40;41.90;;;;;;5045411;28;43079;-80
2022/01/15 04:15:56;;;;;;;;;;;18.40;41.90;;;;;;5045804;28;42892;-83
2022/01/15 04:18:22;;;;;;;;;;;18.40;41.90;;;;;;5044867;28;43546;-78
2022/01/15 04:20:48;;;;;;;;;;;18.40;41.90;;;;;;5044860;28;43078;-79
2022/01/15 04:23:14;;;;;;;;;;;18.40;41.90;;;;;;5044894;28;42886;-82
2022/01/15 04:25:40;;;;;;;;;;;18.40;42.50;;;;;;5045083;28;43194;-80
2022/01/15 04:28:09;;;;;;;;;;;18.40;42.00;;;;;;5043921;28;43437;-83
2022/01/15 04:30:35;;;;;;;;;;;18.40;42.00;;;;;;5045030;28;43052;-78
2022/01/15 04:33:01;;;;;;;;;;;18.40;42.00;;;;;;5044836;28;43863;-79
2022/01/15 04:35:26;;;;;;;;;;;18.40;42.00;;;;;;5045195;28;42871;-82
2022/01/15 04:38:00;;;;;;;;;;;18.40;42.00;;;;;;5044305;28;43013;-82
2022/01/15 04:40:26;;;;;;;;;;;18.40;42.00;;;;;;5044322;28;42868;-81
2022/01/15 04:42:51;;;;;;;;;;;18.40;42.20;;;;;;5044246;28;42916;-83
2022/01/15 04:45:17;;;;;;;;;;;18.40;42.10;;;;;;5044637;28;42948;-81
2022/01/15 04:47:42;;;;;;;;;;;18.40;42.00;;;;;;5044647;28;43537;-82
2022/01/15 04:50:10;;;;;;;;;;;18.40;42.00;;;;;;5044693;28;42952;-82
2022/01/15 04:52:36;;;;;;;;;;;18.40;42.00;;;;;;5044557;28;42946;-72
2022/01/15 04:55:02;;;;;;;;;;;18.40;42.00;;;;;;5044653;28;42918;-74
2022/01/15 04:57:28;;;;;;;;;;;18.40;42.00;;;;;;5044798;28;43431;-82
2022/01/15 04:59:54;;;;;;;;;;;18.30;42.00;;;;;;5044508;28;42957;-73
2022/01/15 05:02:19;;;;;;;;;;;18.30;42.00;;;;;;5044130;28;44027;-82
2022/01/15 05:04:45;;;;;;;;;;;18.30;42.00;;;;;;5044025;28;43004;-83
2022/01/15 05:07:10;;;;;;;;;;;18.30;42.00;;;;;;5044155;28;43837;-83
2022/01/15 05:09:36;;;;;;;;;;;18.30;42.10;;;;;;5044706;28;42970;-75
2022/01/15 05:12:08;;;;;;;;;;;18.40;42.00;;;;;;5044390;28;43843;-82
2022/01/15 05:14:34;;;;;;;;;;;18.30;42.00;;;;;;5044546;28;42857;-83
2022/01/15 05:17:01;;;;;;;;;;;18.30;42.00;;;;;;5044510;28;42817;-84
2022/01/15 05:19:27;;;;;;;;;;;18.30;42.00;;;;;;5039901;28;43011;-82
2022/01/15 05:21:55;;;;;;;;;;;18.30;42.00;;;;;;5035977;28;43728;-68
2022/01/15 05:24:21;;;;;;;;;;;18.30;42.00;;;;;;5027935;28;43232;-68
2022/01/15 05:26:46;;;;;;;;;;;18.30;42.00;;;;;;5025753;28;43653;-78
2022/01/15 05:29:12;;;;;;;;;;;18.30;42.00;;;;;;5035902;28;42959;-68
2022/01/15 05:31:37;;;;;;;;;;;18.30;42.00;;;;;;5037711;28;43406;-72
2022/01/15 05:34:03;;;;;;;;;;;18.30;42.00;;;;;;5039880;28;42941;-76
2022/01/15 05:36:30;;;;;;;;;;;18.30;42.00;;;;;;5030091;28;42890;-85
2022/01/15 05:38:56;;;;;;;;;;;18.20;38.90;;;;;;5009523;28;42866;-79
2022/01/15 05:41:21;;;;;;;;;;;18.20;38.30;;;;;;5027531;28;43594;-78
2022/01/15 05:43:47;;;;;;;;;;;18.10;37.00;;;;;;5027500;28;42878;-79
2022/01/15 05:46:12;;;;;;;;;;;18.10;35.50;;;;;;5027054;28;43020;-69
2022/01/15 05:48:38;;;;;;;;;;;17.90;32.90;;;;;;5027256;28;42957;-68
2022/01/15 05:51:03;;;;;;;;;;;17.60;31.40;;;;;;5044652;28;42896;-68
2022/01/15 05:53:29;;;;;;;;;;;17.30;31.70;;;;;;5047245;28;43027;-68
2022/01/15 05:55:54;;;;;;;;;;;17.00;31.50;;;;;;5047285;28;42927;-80
2022/01/15 05:58:20;;;;;;;;;;;16.90;31.70;;;;;;5033253;28;43000;-72
2022/01/15 06:00:45;;;;;;;;;;;16.60;31.20;;;;;;5043696;28;43567;-74
2022/01/15 06:03:11;;;;;;;;;;;16.50;31.40;;;;;;5046126;28;42964;-79
2022/01/15 06:05:37;;;;;;;;;;;16.30;31.40;;;;;;5046413;28;43410;-77
2022/01/15 06:08:02;;;;;;;;;;;16.10;31.40;;;;;;5046142;28;43091;-80
2022/01/15 06:10:28;;;;;;;;;;;16.10;31.50;;;;;;5044964;28;42996;-80
2022/01/15 06:12:53;;;;;;;;;;;16.00;32.10;;;;;;5038912;28;42894;-81
2022/01/15 06:15:19;;;;;;;;;;;16.00;33.10;;;;;;5023525;28;43701;-85
2022/01/15 06:17:44;;;;;;;;;;;16.30;33.80;;;;;;5044789;28;42980;-77
2022/01/15 06:20:11;;;;;;;;;;;16.50;34.60;;;;;;5027565;28;43571;-76
2022/01/15 06:22:37;;;;;;;;;;;16.60;35.00;;;;;;5044488;28;42983;-76
2022/01/15 06:25:03;;;;;;;;;;;16.70;35.30;;;;;;5045237;28;43589;-83
2022/01/15 06:27:29;;;;;;;;;;;16.80;35.60;;;;;;5045483;28;42801;-83
2022/01/15 06:29:56;;;;;;;;;;;17.00;36.50;;;;;;5044779;28;43752;-81
2022/01/15 06:32:22;;;;;;;;;;;17.00;36.30;;;;;;5046203;28;42814;-80
2022/01/15 06:34:47;;;;;;;;;;;17.10;36.50;;;;;;5045590;28;42937;-74
2022/01/15 06:37:13;;;;;;;;;;;17.20;36.80;;;;;;5045597;28;42940;-82
2022/01/15 06:39:39;;;;;;;;;;;17.20;36.80;;;;;;5044370;28;42999;-84
2022/01/15 06:42:04;;;;;;;;;;;17.30;37.00;;;;;;5046251;28;43066;-84
2022/01/15 06:44:30;;;;;;;;;;;17.40;37.20;;;;;;5044714;28;42985;-82
2022/01/15 06:46:55;;;;;;;;;;;17.40;37.30;;;;;;5044620;28;43050;-82
2022/01/15 06:49:21;;;;;;;;;;;17.50;37.40;;;;;;5045227;28;44437;-80
2022/01/15 06:51:47;;;;;;;;;;;17.50;37.40;;;;;;5045505;28;42947;-72
2022/01/15 06:54:13;;;;;;;;;;;17.50;37.50;;;;;;5045120;28;43485;-82
2022/01/15 06:56:38;;;;;;;;;;;17.60;37.60;;;;;;5027160;28;42952;-81
2022/01/15 06:59:04;;;;;;;;;;;17.60;37.70;;;;;;5045053;28;43664;-83
2022/01/15 07:01:29;;;;;;;;;;;17.60;37.80;;;;;;5045105;28;42937;-83
2022/01/15 07:03:55;;;;;;;;;;;17.70;37.90;;;;;;5045085;28;43694;-85
2022/01/15 07:06:20;;;;;;;;;;;17.70;38.00;;;;;;5045726;28;43074;-84
2022/01/15 07:08:46;;;;;;;;;;;17.70;38.00;;;;;;5045064;28;43943;-84
2022/01/15 07:11:11;;;;;;;;;;;17.70;38.10;;;;;;5041320;28;42999;-82
2022/01/15 07:13:37;;;;;;;;;;;17.80;38.20;;;;;;5041395;28;42944;-84
2022/01/15 07:16:02;;;;;;;;;;;17.80;38.30;;;;;;5040391;28;42881;-84
2022/01/15 07:18:28;;;;;;;;;;;17.80;38.90;;;;;;5032694;28;42878;-84
2022/01/15 07:20:53;;;;;;;;;;;17.80;38.40;;;;;;5025416;28;42890;-84
2022/01/15 07:23:19;;;;;;;;;;;17.80;38.50;;;;;;5021094;28;44598;-80
2022/01/15 07:25:45;;;;;;;;;;;17.90;38.70;;;;;;5034431;28;43590;-84
2022/01/15 07:28:11;;;;;;;;;;;17.90;38.70;;;;;;5026611;28;43471;-79
2022/01/15 07:30:36;;;;;;;;;;;17.90;38.70;;;;;;5036562;28;42933;-84
2022/01/15 07:33:02;;;;;;;;;;;17.90;38.80;;;;;;5025151;28;43435;-84
2022/01/15 07:35:28;;;;;;;;;;;17.90;38.80;;;;;;5031275;28;42937;-84
2022/01/15 07:37:53;;;;;;;;;;;17.90;38.90;;;;;;5045375;28;43966;-81
2022/01/15 07:40:19;;;;;;;;;;;17.90;38.90;;;;;;5041136;28;42939;-79
2022/01/15 07:42:44;;;;;;;;;;;17.90;39.00;;;;;;5035938;28;43427;-84
2022/01/15 07:45:11;;;;;;;;;;;18.00;39.10;;;;;;5029283;28;42894;-83
2022/01/15 07:47:37;;;;;;;;;;;18.00;39.10;;;;;;5046310;28;43077;-83
2022/01/15 07:50:04;;;;;;;;;;;18.00;39.20;;;;;;5007868;28;42957;-79
2022/01/15 07:52:29;;;;;;;;;;;18.00;39.20;;;;;;5031483;28;42945;-84
2022/01/15 07:54:58;;;;;;;;;;;18.00;39.20;;;;;;5036946;28;43040;-84
2022/01/15 07:57:24;;;;;;;;;;;18.00;39.30;;;;;;5038907;28;42909;-84
2022/01/15 07:59:50;;;;;;;;;;;18.00;39.30;;;;;;5045086;28;43132;-83
2022/01/15 08:02:16;;;;;;;;;;;18.00;39.50;;;;;;5045142;28;43036;-85
2022/01/15 08:04:42;;;;;;;;;;;18.00;39.40;;;;;;5044956;28;42950;-83
2022/01/15 08:07:09;;;;;;;;;;;18.10;39.50;;;;;;5044316;28;43445;-80
2022/01/15 08:09:35;;;;;;;;;;;18.10;39.70;;;;;;5045489;28;42999;-82
2022/01/15 08:12:00;;;;;;;;;;;18.10;39.60;;;;;;5045157;28;42991;-83
2022/01/15 08:14:26;;;;;;;;;;;18.10;39.60;;;;;;5045538;28;42906;-84
2022/01/15 08:16:51;;;;;;;;;;;18.10;39.60;;;;;;5044794;28;42962;-83
2022/01/15 08:19:17;;;;;;;;;;;18.10;39.60;;;;;;5045766;28;43002;-83
2022/01/15 08:21:43;;;;;;;;;;;18.10;39.70;;;;;;5047076;28;42873;-76
2022/01/15 08:24:08;;;;;;;;;;;18.10;39.70;;;;;;5047433;28;43045;-77
2022/01/15 08:26:34;;;;;;;;;;;18.10;39.70;;;;;;5055648;28;43172;-69
2022/01/15 08:28:59;;;;;;;;;;;18.10;39.90;;;;;;5048990;28;42832;-74
2022/01/15 08:31:25;;;;;;;;;;;18.10;39.90;;;;;;5044482;28;42903;-81
2022/01/15 08:33:50;;;;;;;;;;;18.10;39.80;;;;;;5045357;28;42873;-83
2022/01/15 08:36:17;;;;;;;;;;;18.20;39.90;;;;;;5045120;28;42903;-82
2022/01/15 08:38:43;;;;;;;;;;;18.20;40.00;;;;;;5044939;28;42913;-69
2022/01/15 08:41:11;;;;;;;;;;;18.10;40.00;;;;;;5045046;28;43943;-80
2022/01/15 08:43:37;;;;;;;;;;;18.20;40.10;;;;;;5044409;28;42986;-76
2022/01/15 08:46:02;;;;;;;;;;;18.20;40.10;;;;;;5044382;28;43001;-80
2022/01/15 08:48:28;;;;;;;;;;;18.20;40.00;;;;;;5044414;28;42983;-82
2022/01/15 08:50:54;;;;;;;;;;;18.20;40.10;;;;;;5044797;28;43356;-81
2022/01/15 08:53:21;;;;;;;;;;;18.20;40.10;;;;;;5044470;28;43012;-83
2022/01/15 08:55:47;;;;;;;;;;;18.20;40.10;;;;;;5043927;28;43563;-69
2022/01/15 08:58:13;;;;;;;;;;;18.20;40.10;;;;;;5044197;28;42943;-68
2022/01/15 09:00:38;;;;;;;;;;;18.20;40.10;;;;;;5043842;28;43613;-68
2022/01/15 09:03:06;;;;;;;;;;;18.20;40.20;;;;;;5043829;28;42978;-72
2022/01/15 09:05:34;;;;;;;;;;;18.20;40.20;;;;;;5043020;28;42904;-69
2022/01/15 09:07:59;;;;;;;;;;;18.20;40.20;;;;;;5046471;28;43061;-68
2022/01/15 09:10:25;;;;;;;;;;;18.20;40.30;;;;;;5047791;28;43575;-68
2022/01/15 09:12:50;;;;;;;;;;;18.20;40.30;;;;;;5048273;28;42835;-67
2022/01/15 09:15:16;;;;;;;;;;;18.20;40.30;;;;;;5047964;28;42967;-69
2022/01/15 09:17:42;;;;;;;;;;;18.20;40.40;;;;;;5047788;28;42927;-69
2022/01/15 09:20:08;;;;;;;;;;;18.20;40.40;;;;;;5048012;28;42898;-68
2022/01/15 09:22:33;;;;;;;;;;;18.20;40.40;;;;;;5047370;28;42944;-69
2022/01/15 09:25:00;;;;;;;;;;;18.30;40.50;;;;;;5047538;28;42921;-68
2022/01/15 09:30:12;;;;;;;;;;;18.30;40.60;;;;;;5048006;28;43208;-68
2022/01/15 09:32:58;;;;;;;;;;;18.30;40.50;;;;;;5047717;28;42935;-68
2022/01/15 09:35:30;;;;;;;;;;;18.30;40.50;;;;;;5046669;28;43673;-68
2022/01/15 09:37:55;;;;;;;;;;;18.30;40.50;;;;;;5047368;28;43116;-77
2022/01/15 09:40:23;;;;;;;;;;;18.30;40.50;;;;;;5047363;28;42752;-69
2022/01/15 09:42:49;;;;;;;;;;;18.30;40.50;;;;;;5047304;28;42906;-67
2022/01/15 09:45:16;;;;;;;;;;;18.30;40.50;;;;;;5046705;28;43472;-67
2022/01/15 09:47:42;;;;;;;;;;;18.30;40.50;;;;;;5047205;28;43205;-67
2022/01/15 09:50:09;;;;;;;;;;;18.40;40.60;;;;;;5046588;28;43525;-68
2022/01/15 09:52:35;;;;;;;;;;;18.40;40.50;;;;;;5046927;28;43053;-69
2022/01/15 09:55:01;;;;;;;;;;;18.50;40.50;;;;;;5047058;28;43731;-68
2022/01/15 09:57:26;;;;;;;;;;;18.60;40.40;;;;;;5029031;28;42986;-68
2022/01/15 09:59:53;;;;;;;;;;;18.60;40.30;;;;;;5047369;28;42916;-69
2022/01/15 10:02:18;;;;;;;;;;;18.70;40.20;;;;;;5047185;28;43080;-69
2022/01/15 10:04:44;;;;;;;;;;;17.70;39.60;;;;;;5047051;28;43482;-69
2022/01/15 10:07:14;;;;;;;;;;;18.80;40.20;;;;;;5047137;28;43231;-71
2022/01/15 10:09:41;;;;;;;;;;;18.80;40.20;;;;;;5046639;28;43439;-68
2022/01/15 10:12:06;;;;;;;;;;;18.80;40.30;;;;;;5046967;28;42837;-70
2022/01/15 10:14:32;;;;;;;;;;;18.70;40.30;;;;;;5046182;28;43439;-68
2022/01/15 10:16:59;;;;;;;;;;;18.70;40.40;;;;;;5046436;28;42994;-69
2022/01/15 10:19:29;;;;;;;;;;;18.70;40.50;;;;;;5046347;28;43540;-69
2022/01/15 10:22:04;;;;;;;;;;;18.60;40.60;;;;;;5046653;28;42896;-69
2022/01/15 10:24:30;;;;;;;;;;;18.60;40.70;;;;;;5046611;28;43271;-85
2022/01/15 10:26:56;;;;;;;;;;;18.60;40.70;;;;;;5046702;28;43072;-69
2022/01/15 10:29:21;;;;;;;;;;;18.60;40.80;;;;;;5047214;28;43079;-69
2022/01/15 10:31:47;;;;;;;;;;;18.60;40.90;;;;;;5047144;28;42962;-69
2022/01/15 10:34:24;;;;;;;;;;;18.60;40.90;;;;;;5046101;28;43497;-69
2022/01/15 10:36:50;;;;;;;;;;;18.60;40.90;;;;;;5046395;28;42889;-71
2022/01/15 10:39:17;;;;;;;;;;;18.60;41.00;;;;;;5045823;28;43057;-70
2022/01/15 10:41:43;;;;;;;;;;;18.60;41.00;;;;;;5045753;28;42950;-68
2022/01/15 10:44:32;;;;;;;;;;;18.60;41.00;;;;;;5045784;28;43043;-68
2022/01/15 10:47:01;;;;;;;;;;;18.60;41.00;;;;;;5046661;28;42990;-73
2022/01/15 10:49:27;;;;;;;;;;;18.60;41.00;;;;;;5045618;28;43019;-69
2022/01/15 10:52:04;;;;;;;;;;;18.60;41.00;;;;;;5046215;28;43249;-70
2022/01/15 10:54:30;;;;;;;;;;;18.60;41.00;;;;;;5046206;28;42930;-69
2022/01/15 10:57:09;;;;;;;;;;;18.60;41.10;;;;;;5046601;28;42924;-68
2022/01/15 10:59:34;;;;;;;;;;;18.60;41.10;;;;;;5046200;28;43205;-69
2022/01/15 11:02:16;;;;;;;;;;;18.60;41.10;;;;;;5045623;28;42916;-68
2022/01/15 11:04:42;;;;;;;;;;;18.60;41.10;;;;;;5045917;28;42886;-70
2022/01/15 11:07:14;;;;;;;;;;;18.60;41.10;;;;;;5045764;28;42836;-69
2022/01/15 11:09:44;;;;;;;;;;;18.60;41.10;;;;;;5045234;28;42936;-68
2022/01/15 11:12:10;;;;;;;;;;;18.60;41.20;;;;;;5045128;28;42877;-80
2022/01/15 11:14:36;;;;;;;;;;;18.60;41.20;;;;;;5045610;28;44335;-69
2022/01/15 11:17:01;;;;;;;;;;;18.60;41.20;;;;;;5046347;28;42955;-82
2022/01/15 11:19:29;;;;;;;;;;;18.60;41.20;;;;;;5045573;28;42893;-83
2022/01/15 11:21:55;;;;;;;;;;;18.60;41.20;;;;;;5046142;28;43010;-83
2022/01/15 11:24:21;;;;;;;;;;;18.70;41.20;;;;;;5046189;28;43653;-84
2022/01/15 11:26:51;;;;;;;;;;;18.60;41.20;;;;;;5046283;28;43011;-83
2022/01/15 11:29:18;;;;;;;;;;;18.70;41.30;;;;;;5043754;28;43776;-78
2022/01/15 11:31:45;;;;;;;;;;;18.60;41.20;;;;;;5045201;28;42995;-83
2022/01/15 11:34:12;;;;;;;;;;;18.70;41.30;;;;;;5053122;28;43481;-76
2022/01/15 11:36:37;;;;;;;;;;;18.70;41.30;;;;;;5047676;28;42738;-71
2022/01/15 11:39:33;;;;;;;;;;;18.70;41.30;;;;;;5045532;28;43407;-69
2022/01/15 11:42:00;;;;;;;;;;;18.60;41.20;;;;;;5045457;28;42961;-69
2022/01/15 11:44:28;;;;;;;;;;;18.60;41.20;;;;;;5044317;28;42925;-68
2022/01/15 11:46:54;;;;;;;;;;;18.70;41.30;;;;;;5045373;28;43023;-69
2022/01/15 11:49:35;;;;;;;;;;;18.70;41.30;;;;;;5045147;28;42943;-69
2022/01/15 11:52:11;;;;;;;;;;;18.60;41.30;;;;;;5044815;28;42941;-68
2022/01/15 11:54:40;;;;;;;;;;;18.70;41.30;;;;;;5045271;28;43418;-68
2022/01/15 11:57:24;;;;;;;;;;;18.70;41.40;;;;;;5036625;28;42948;-69
2022/01/15 12:00:28;;;;;;;;;;;18.70;41.90;;;;;;5032349;28;43263;-68
2022/01/15 12:02:58;;;;;;;;;;;18.70;41.40;;;;;;4979333;28;43001;-73
2022/01/15 12:05:25;;;;;;;;;;;18.70;41.40;;;;;;4982278;28;42943;-76
2022/01/15 12:08:00;;;;;;;;;;;18.70;41.60;;;;;;4974321;28;43033;-74
2022/01/15 12:10:38;;;;;;;;;;;18.70;41.50;;;;;;4982049;28;42973;-76
2022/01/15 12:13:09;;;;;;;;;;;18.70;41.60;;;;;;4981891;28;42923;-77
2022/01/15 12:15:35;;;;;;;;;;;18.70;41.60;;;;;;4982932;28;42936;-79
2022/01/15 12:18:12;;;;;;;;;;;18.70;42.10;;;;;;4982924;28;42840;-79
2022/01/15 12:20:38;;;;;;;;;;;18.70;41.60;;;;;;4982339;28;43808;-73
2022/01/15 12:23:22;;;;;;;;;;;18.70;41.70;;;;;;4982652;28;43104;-78
2022/01/15 12:25:51;;;;;;;;;;;18.70;41.60;;;;;;4979007;28;43093;-78
2022/01/15 12:28:17;;;;;;;;;;;18.70;41.70;;;;;;4982382;28;42902;-71
2022/01/15 12:30:46;;;;;;;;;;;18.70;41.60;;;;;;4982142;28;43532;-73
2022/01/15 12:33:13;;;;;;;;;;;18.70;41.60;;;;;;5001231;28;43038;-69
2022/01/15 12:35:43;;;;;;;;;;;18.70;41.60;;;;;;5044110;28;43098;-69
2022/01/15 12:38:15;;;;;;;;;;;18.70;41.70;;;;;;5043659;28;42817;-69
2022/01/15 12:40:54;;;;;;;;;;;18.70;41.70;;;;;;5043192;28;43370;-69
2022/01/15 12:43:29;;;;;;;;;;;18.70;41.70;;;;;;5042174;28;43777;-69
2022/01/15 12:46:03;;;;;;;;;;;18.70;41.70;;;;;;5041940;28;43534;-69
2022/01/15 12:48:32;;;;;;;;;;;18.70;41.70;;;;;;5044110;28;42795;-69
2022/01/15 12:50:59;;;;;;;;;;;18.70;41.70;;;;;;5036143;28;44351;-69
2022/01/15 12:53:26;;;;;;;;;;;18.70;41.70;;;;;;5043928;28;43015;-69
2022/01/15 12:55:51;;;;;;;;;;;18.70;41.80;;;;;;5042413;28;43034;-70
2022/01/15 12:58:18;;;;;;;;;;;18.70;41.70;;;;;;5043629;28;43099;-73
2022/01/15 13:00:44;;;;;;;;;;;18.70;41.70;;;;;;5025581;28;43570;-76
2022/01/15 13:03:11;;;;;;;;;;;18.70;41.70;;;;;;5023640;28;42945;-71
2022/01/15 13:05:39;;;;;;;;;;;18.70;38.30;;;;;;5027018;28;43158;-75
2022/01/15 13:08:05;;;;;;;;;;;18.70;37.30;;;;;;5037221;28;43085;-68
2022/01/15 13:10:33;;;;;;;;;;;18.70;36.90;;;;;;5026265;28;42922;-70
2022/01/15 13:12:58;;;;;;;;;;;18.60;36.80;;;;;;5038497;28;43143;-72
2022/01/15 13:15:25;;;;;;;;;;;18.60;36.60;;;;;;5042799;28;43902;-68
2022/01/15 13:17:51;;;;;;;;;;;18.50;37.00;;;;;;5042115;28;43054;-67
2022/01/15 13:20:26;;;;;;;;;;;18.50;36.70;;;;;;5030581;28;42874;-69
2022/01/15 13:22:52;;;;;;;;;;;18.50;36.50;;;;;;5040948;28;43308;-71
2022/01/15 13:25:21;;;;;;;;;;;18.50;37.30;;;;;;5041110;28;42932;-68
2022/01/15 13:27:47;;;;;;;;;;;18.50;36.80;;;;;;5042685;28;42945;-68
2022/01/15 13:30:12;;;;;;;;;;;18.50;35.90;;;;;;5042695;28;42976;-68
2022/01/15 13:32:38;;;;;;;;;;;18.40;35.30;;;;;;5043237;28;43052;-68
2022/01/15 13:35:11;;;;;;;;;;;18.40;35.80;;;;;;5043126;28;43435;-71
2022/01/15 13:37:48;;;;;;;;;;;18.40;36.70;;;;;;5041785;28;43035;-68
2022/01/15 13:40:25;;;;;;;;;;;18.40;36.80;;;;;;5043004;28;42920;-68
2022/01/15 13:42:50;;;;;;;;;;;18.50;37.20;;;;;;5042719;28;43070;-68
2022/01/15 13:45:16;;;;;;;;;;;18.50;37.30;;;;;;5042935;28;42897;-69
2022/01/15 13:47:41;;;;;;;;;;;18.50;37.50;;;;;;5043517;28;42959;-68
2022/01/15 13:53:07;;;;;;;;;;;18.60;37.90;;;;;;5043772;28;42948;-69
2022/01/15 13:55:33;;;;;;;;;;;18.60;38.10;;;;;;5032042;28;43498;-69
2022/01/15 13:58:09;;;;;;;;;;;18.60;38.70;;;;;;5027423;28;42838;-70
2022/01/15 14:00:34;;;;;;;;;;;18.60;38.30;;;;;;5026704;28;43329;-76
2022/01/15 14:03:05;;;;;;;;;;;18.60;38.40;;;;;;5026817;28;42942;-70
2022/01/15 14:05:31;;;;;;;;;;;18.60;38.50;;;;;;5025396;28;42995;-81
2022/01/15 14:07:56;;;;;;;;;;;18.60;38.60;;;;;;5026465;28;42793;-78
2022/01/15 14:10:23;;;;;;;;;;;18.60;38.70;;;;;;5025856;28;43827;-69
2022/01/15 14:13:03;;;;;;;;;;;18.60;38.80;;;;;;5026780;28;42927;-76
2022/01/15 14:15:36;;;;;;;;;;;18.60;38.90;;;;;;5026126;28;43320;-77
2022/01/15 14:18:08;;;;;;;;;;;18.60;39.00;;;;;;5026413;28;42956;-71
2022/01/15 14:23:33;;;;;;;;;;;18.60;39.20;;;;;;5026664;28;42830;-69
2022/01/15 14:26:13;;;;;;;;;;;18.60;39.30;;;;;;5026367;28;42996;-76
2022/01/15 14:28:39;;;;;;;;;;;18.60;39.40;;;;;;5026578;28;42806;-77
2022/01/15 14:31:04;;;;;;;;;;;18.60;39.50;;;;;;5026855;28;42949;-73
2022/01/15 14:33:30;;;;;;;;;;;18.70;39.70;;;;;;5026590;28;42886;-76
2022/01/15 14:35:55;;;;;;;;;;;18.70;39.70;;;;;;5026026;28;43572;-71
2022/01/15 14:38:22;;;;;;;;;;;18.60;39.70;;;;;;5026880;28;42833;-71
2022/01/15 14:40:49;;;;;;;;;;;18.60;39.80;;;;;;5026488;28;43511;-69
2022/01/15 14:43:15;;;;;;;;;;;18.70;40.40;;;;;;5030461;28;42866;-75
2022/01/15 14:45:41;;;;;;;;;;;18.70;39.90;;;;;;5034908;28;43524;-70
2022/01/15 14:48:06;;;;;;;;;;;18.60;39.90;;;;;;5031819;28;42946;-69
2022/01/15 14:50:32;;;;;;;;;;;18.70;40.00;;;;;;5025806;28;42701;-68